Time;durP1;ratioP1;P1;durP2;ratioP2;P2;SDS_P1;SDS_P2;PMS_P1;PMS_P2;Temp;Humidity;BMP_temperature;BMP_pressure;BME280_temperature;BME280_humidity;BME280_pressure;Samples;Min_cycle;Max_cycle;Signal;HPM_P1;HPM_P2
2024/04/24 00:00:53;;;;;;;7.63;1.83;;;;;;;15.84;38.51;101103.41;5281080;27;20054;-61
2024/04/24 00:03:18;;;;;;;12.40;1.88;;;;;;;15.80;38.89;101099.34;5251134;27;20010;-61
2024/04/24 00:05:44;;;;;;;4.13;1.60;;;;;;;15.78;39.02;101094.09;5251745;27;20021;-61
2024/04/24 00:08:09;;;;;;;3.47;2.70;;;;;;;15.73;38.75;101091.88;5252145;27;19998;-61
2024/04/24 00:10:35;;;;;;;4.28;1.40;;;;;;;15.78;39.06;101093.22;5281142;27;20006;-61
2024/04/24 00:13:00;;;;;;;4.35;1.52;;;;;;;15.76;39.20;101093.41;5251736;27;20002;-61
2024/04/24 00:15:26;;;;;;;4.47;2.83;;;;;;;15.73;39.12;101089.16;5223639;27;20010;-61
2024/04/24 00:17:51;;;;;;;2.78;1.67;;;;;;;15.71;39.15;101088.47;5250948;27;20021;-61
2024/04/24 00:20:17;;;;;;;4.68;2.20;;;;;;;15.70;39.17;101078.66;5250482;27;20006;-61
2024/04/24 00:22:42;;;;;;;5.72;1.70;;;;;;;15.69;39.65;101082.38;5222576;27;20002;-61
2024/04/24 00:25:07;;;;;;;2.42;1.58;;;;;;;15.67;39.42;101075.41;5280426;27;20042;-61
2024/04/24 00:27:33;;;;;;;3.28;2.35;;;;;;;15.63;39.37;101072.19;5223002;27;20003;-61
2024/04/24 00:29:59;;;;;;;2.50;1.40;;;;;;;15.61;39.50;101070.63;5195853;27;20002;-61
2024/04/24 00:32:25;;;;;;;4.95;2.33;;;;;;;15.60;39.50;101069.81;5280547;27;20439;-61
2024/04/24 00:34:51;;;;;;;3.47;1.70;;;;;;;15.59;39.62;101068.09;5278516;27;20006;-61
2024/04/24 00:37:16;;;;;;;2.38;1.63;;;;;;;15.59;39.61;101068.09;5222825;27;20006;-61
2024/04/24 00:39:42;;;;;;;6.88;1.83;;;;;;;15.56;39.18;101068.41;5250449;27;20006;-61
2024/04/24 00:42:20;;;;;;;5.65;2.55;;;;;;;15.53;39.92;101059.78;5250219;27;20002;-62
2024/04/24 00:44:45;;;;;;;7.45;2.08;;;;;;;15.50;39.47;101051.97;5250197;27;20017;-61
2024/04/24 00:47:12;;;;;;;3.85;1.85;;;;;;;15.47;39.53;101047.75;5250162;27;20435;-61
2024/04/24 00:49:39;;;;;;;4.25;2.40;;;;;;;15.44;39.46;101047.16;5250481;27;20345;-61
2024/04/24 00:52:04;;;;;;;4.55;2.10;;;;;;;15.45;39.91;101049.72;5250381;27;20076;-61
2024/04/24 00:54:30;;;;;;;5.57;1.80;;;;;;;15.43;39.58;101046.34;5250941;27;20011;-61
2024/04/24 00:56:56;;;;;;;3.00;1.73;;;;;;;15.40;40.06;101046.66;5223503;27;20009;-61
2024/04/24 00:59:22;;;;;;;8.35;2.40;;;;;;;15.35;39.66;101038.16;5251310;27;19995;-60
2024/04/24 01:01:47;;;;;;;2.88;1.17;;;;;;;15.36;39.80;101039.84;5195876;27;20006;-61
2024/04/24 01:04:13;;;;;;;4.97;1.73;;;;;;;15.35;39.71;101037.31;5250245;27;20003;-61
2024/04/24 01:06:38;;;;;;;6.47;0.93;;;;;;;15.33;40.05;101042.00;5222282;27;19994;-60
2024/04/24 01:09:04;;;;;;;2.45;1.23;;;;;;;15.30;39.81;101026.97;5279784;27;20006;-61
2024/04/24 01:11:31;;;;;;;2.70;1.52;;;;;;;15.28;39.83;101028.97;5221901;27;20072;-60
2024/04/24 01:13:56;;;;;;;2.42;0.90;;;;;;;15.30;40.01;101024.28;5222413;27;20003;-61
2024/04/24 01:16:29;;;;;;;3.72;1.40;;;;;;;15.29;40.25;101028.00;5222017;27;20013;-60
2024/04/24 01:19:01;;;;;;;3.00;0.75;;;;;;;15.27;40.03;101012.97;5249445;27;20550;-61
2024/04/24 01:22:05;;;;;;;1.38;1.13;;;;;;;15.29;39.86;101014.50;5250077;27;20007;-60
2024/04/24 01:24:33;;;;;;;2.90;1.27;;;;;;;15.27;39.73;101021.88;5200012;27;20450;-61
2024/04/24 01:26:59;;;;;;;5.30;1.20;;;;;;;15.26;40.11;101016.66;5250259;27;20435;-60
2024/04/24 01:29:24;;;;;;;2.10;1.02;;;;;;;15.26;40.06;101009.41;5250254;27;20002;-61
2024/04/24 01:31:50;;;;;;;4.40;1.10;;;;;;;15.27;39.90;101012.97;5249839;27;20002;-60
2024/04/24 01:34:15;;;;;;;3.60;0.93;;;;;;;15.29;39.87;101019.91;5277550;27;20085;-61
2024/04/24 01:36:41;;;;;;;6.75;1.40;;;;;;;15.24;40.09;101024.91;5221752;27;20390;-60
2024/04/24 01:39:06;;;;;;;0.70;0.60;;;;;;;15.16;40.01;101017.56;5249697;27;20011;-61
2024/04/24 01:41:32;;;;;;;2.72;0.55;;;;;;;15.06;40.09;101013.25;5249744;27;20018;-61
2024/04/24 01:43:57;;;;;;;0.68;0.47;;;;;;;14.99;40.04;101017.56;5279659;27;20053;-61
2024/04/24 01:46:23;;;;;;;0.65;0.25;;;;;;;14.91;40.09;101012.06;5249588;27;20075;-61
2024/04/24 01:48:48;;;;;;;2.65;0.30;;;;;;;14.86;39.94;101009.84;5221191;27;20002;-61
2024/04/24 01:51:13;;;;;;;2.47;0.80;;;;;;;14.79;40.30;100997.13;5278918;27;19998;-61
2024/04/24 01:53:39;;;;;;;1.55;0.70;;;;;;;14.78;40.13;101000.81;5221350;27;20442;-61
2024/04/24 01:56:04;;;;;;;1.70;0.73;;;;;;;14.75;40.32;100995.72;5278662;27;20002;-60
2024/04/24 01:58:30;;;;;;;2.03;0.30;;;;;;;14.73;40.43;100986.94;5278795;27;20109;-61
2024/04/24 02:00:55;;;;;;;1.10;0.60;;;;;;;14.72;40.26;100994.19;5248962;27;20037;-61
2024/04/24 02:03:21;;;;;;;1.75;0.70;;;;;;;14.71;39.88;100983.56;5259521;27;20014;-61
2024/04/24 02:05:46;;;;;;;1.88;0.77;;;;;;;14.69;40.31;100980.16;5215197;27;20003;-61
2024/04/24 02:08:11;;;;;;;0.75;0.50;;;;;;;14.73;40.57;100989.63;5243713;27;20003;-61
2024/04/24 02:10:37;;;;;;;3.65;0.70;;;;;;;14.72;40.55;100990.63;5215339;27;20086;-60
2024/04/24 02:13:03;;;;;;;0.82;0.40;;;;;;;14.73;40.17;100984.25;5215767;27;20017;-61
2024/04/24 02:15:28;;;;;;;1.63;0.55;;;;;;;14.74;40.58;100972.47;5188105;27;20011;-61
2024/04/24 02:17:54;;;;;;;2.45;0.70;;;;;;;14.74;40.43;100977.88;5215970;27;20076;-61
2024/04/24 02:20:20;;;;;;;5.72;0.90;;;;;;;14.69;40.28;100970.22;5188485;27;20003;-60
2024/04/24 02:22:45;;;;;;;2.45;0.47;;;;;;;14.69;40.36;100964.81;5188438;27;20021;-61
2024/04/24 02:27:55;;;;;;;3.20;0.88;;;;;;;14.67;40.49;100976.75;5215643;27;20010;-60
2024/04/24 02:30:20;;;;;;;0.75;0.40;;;;;;;14.65;40.72;100970.69;5188979;27;20007;-61
2024/04/24 02:32:46;;;;;;;5.80;0.90;;;;;;;14.63;40.68;100964.59;5216013;27;20003;-61
2024/04/24 02:35:12;;;;;;;1.02;0.63;;;;;;;14.64;40.56;100967.13;5215518;27;20014;-61
2024/04/24 02:37:37;;;;;;;1.35;0.90;;;;;;;14.65;40.76;100967.97;5187720;27;20018;-61
2024/04/24 02:40:03;;;;;;;2.05;0.65;;;;;;;14.63;40.55;100956.50;5187793;27;20337;-61
2024/04/24 02:42:28;;;;;;;1.23;0.80;;;;;;;14.63;40.69;100943.03;5214841;27;20035;-61
2024/04/24 02:44:54;;;;;;;3.08;0.88;;;;;;;14.65;40.70;100949.97;5187625;27;19999;-61
2024/04/24 02:47:20;;;;;;;0.75;0.40;;;;;;;14.65;40.74;100952.66;5214845;27;20003;-61
2024/04/24 02:49:45;;;;;;;3.13;0.80;;;;;;;14.64;40.74;100950.94;5187698;27;20030;-61
2024/04/24 02:52:10;;;;;;;1.08;0.40;;;;;;;14.65;40.70;100954.50;5187447;27;20003;-61
2024/04/24 02:54:36;;;;;;;2.20;0.40;;;;;;;14.64;40.92;100950.09;5242727;27;20102;-61
2024/04/24 02:57:01;;;;;;;2.92;0.50;;;;;;;14.58;40.90;100941.63;5214881;27;20047;-61
2024/04/24 02:59:27;;;;;;;1.40;0.57;;;;;;;14.58;40.83;100932.69;5160270;27;20017;-61
2024/04/24 03:01:52;;;;;;;0.30;0.30;;;;;;;14.58;40.89;100941.63;5214776;27;19999;-61
2024/04/24 03:04:18;;;;;;;1.10;0.52;;;;;;;14.55;40.93;100930.28;5214788;27;20007;-61
2024/04/24 03:06:43;;;;;;;1.65;0.30;;;;;;;14.54;40.98;100928.63;5214694;27;20003;-61
2024/04/24 03:09:10;;;;;;;1.02;0.30;;;;;;;14.54;40.81;100936.69;5187503;27;20007;-61
2024/04/24 03:11:37;;;;;;;1.75;0.60;;;;;;;14.53;40.76;100924.22;5187328;27;20038;-61
2024/04/24 03:14:03;;;;;;;3.15;1.02;;;;;;;14.50;40.80;100927.22;5214975;27;20015;-61
2024/04/24 03:16:29;;;;;;;3.22;0.52;;;;;;;14.48;40.85;100923.81;5244048;27;20011;-61
2024/04/24 03:18:55;;;;;;;1.77;0.75;;;;;;;14.48;40.60;100918.44;5246007;27;20014;-61
2024/04/24 03:21:21;;;;;;;1.10;0.60;;;;;;;14.49;40.94;100918.28;5218763;27;20003;-61
2024/04/24 03:23:46;;;;;;;3.33;0.60;;;;;;;14.50;40.80;100917.28;5218187;27;20007;-61
2024/04/24 03:26:12;;;;;;;0.75;0.73;;;;;;;14.48;40.86;100907.66;5245376;27;20017;-60
2024/04/24 03:28:38;;;;;;;8.60;1.67;;;;;;;14.45;40.91;100898.03;5217979;27;20019;-61
2024/04/24 03:31:03;;;;;;;2.80;1.02;;;;;;;14.45;40.71;100897.19;5185833;27;20344;-60
2024/04/24 03:33:28;;;;;;;3.03;1.10;;;;;;;14.45;40.91;100902.56;5248578;27;20014;-61
2024/04/24 03:35:54;;;;;;;2.70;1.00;;;;;;;14.44;40.95;100896.31;5251123;27;20042;-61
2024/04/24 03:38:19;;;;;;;1.60;1.02;;;;;;;14.42;41.00;100898.34;5251003;27;20002;-61
2024/04/24 03:40:45;;;;;;;0.90;0.88;;;;;;;14.39;41.11;100895.09;5224051;27;20016;-60
2024/04/24 03:43:10;;;;;;;2.17;1.42;;;;;;;14.39;40.81;100898.63;5217166;27;20017;-61
2024/04/24 03:45:36;;;;;;;4.40;1.85;;;;;;;14.33;40.94;100885.75;5247051;27;20530;-61
2024/04/24 03:48:01;;;;;;;3.17;1.23;;;;;;;14.35;41.21;100899.91;5245399;27;20047;-61
2024/04/24 03:50:26;;;;;;;1.48;1.38;;;;;;;14.33;41.24;100885.75;5230076;27;20556;-61
2024/04/24 03:52:52;;;;;;;0.93;0.93;;;;;;;14.27;41.11;100878.25;5280758;27;20076;-60
2024/04/24 03:55:18;;;;;;;2.60;0.90;;;;;;;14.29;41.15;100880.81;5280897;27;20073;-61
2024/04/24 03:57:43;;;;;;;1.20;1.10;;;;;;;14.27;40.87;100883.63;5250675;27;20034;-61
2024/04/24 04:00:09;;;;;;;0.75;0.70;;;;;;;14.22;40.99;100880.56;5278904;27;20079;-61
2024/04/24 04:02:37;;;;;;;0.70;0.70;;;;;;;14.21;41.05;100883.41;5288932;27;20044;-62
2024/04/24 04:05:03;;;;;;;0.93;0.60;;;;;;;14.20;41.15;100877.16;5250814;27;20007;-61
2024/04/24 04:07:28;;;;;;;0.68;0.60;;;;;;;14.18;41.01;100873.75;5307314;26;20481;-61
2024/04/24 04:09:54;;;;;;;2.72;0.63;;;;;;;14.19;41.06;100880.00;5342570;26;20355;-61
2024/04/24 04:12:19;;;;;;;2.65;0.88;;;;;;;14.19;41.00;100874.59;5336290;26;20002;-61
2024/04/24 04:14:44;;;;;;;1.23;0.70;;;;;;;14.15;41.16;100879.47;5339529;26;20007;-61
2024/04/24 04:17:11;;;;;;;0.40;0.40;;;;;;;14.15;40.85;100879.47;5336033;26;20014;-61
2024/04/24 04:19:36;;;;;;;1.67;0.88;;;;;;;14.15;41.05;100879.47;5308596;27;20446;-61
2024/04/24 04:22:02;;;;;;;0.73;0.73;;;;;;;14.14;40.88;100882.31;5278997;27;20002;-61
2024/04/24 04:24:29;;;;;;;2.60;0.80;;;;;;;14.14;40.99;100888.53;5307397;27;20003;-62
2024/04/24 04:26:55;;;;;;;4.85;0.85;;;;;;;14.14;40.88;100883.16;5308632;26;20006;-61
2024/04/24 04:29:21;;;;;;;3.08;0.70;;;;;;;14.13;41.12;100878.75;5252521;27;20014;-61
2024/04/24 04:31:46;;;;;;;0.75;0.70;;;;;;;14.10;40.93;100870.16;5279913;27;20006;-62
2024/04/24 04:34:12;;;;;;;0.40;0.40;;;;;;;14.09;41.01;100874.69;5223109;27;20016;-61
2024/04/24 04:36:37;;;;;;;3.15;0.80;;;;;;;14.06;40.87;100874.97;5280122;27;20002;-61
2024/04/24 04:39:06;;;;;;;0.88;0.85;;;;;;;14.09;41.01;100880.06;5250597;27;20006;-62
2024/04/24 04:41:31;;;;;;;1.65;0.63;;;;;;;14.07;41.11;100882.03;5250537;27;20414;-61
2024/04/24 04:43:56;;;;;;;1.10;1.00;;;;;;;14.05;40.89;100873.28;5250336;27;20072;-61
2024/04/24 04:46:22;;;;;;;0.80;0.73;;;;;;;14.05;40.85;100867.88;5250468;27;20002;-61
2024/04/24 04:48:48;;;;;;;2.58;1.05;;;;;;;14.10;41.11;100875.53;5307114;27;20017;-61
2024/04/24 04:51:14;;;;;;;2.28;0.82;;;;;;;14.11;41.14;100878.06;5267686;27;20360;-61
2024/04/24 04:53:40;;;;;;;2.65;1.17;;;;;;;14.10;40.89;100865.59;5216573;27;20081;-62
2024/04/24 04:56:06;;;;;;;2.15;1.20;;;;;;;14.14;41.07;100869.69;5272338;27;20003;-62
2024/04/24 04:58:31;;;;;;;4.63;1.25;;;;;;;14.13;41.04;100869.81;5273283;27;20003;-61
2024/04/24 05:00:56;;;;;;;3.28;1.25;;;;;;;14.12;41.35;100863.63;5244183;27;20435;-61
2024/04/24 05:03:22;;;;;;;5.28;1.50;;;;;;;14.18;41.13;100868.38;5243865;27;19999;-61
2024/04/24 05:05:47;;;;;;;3.28;1.58;;;;;;;14.25;41.04;100866.78;5246334;27;20039;-61
2024/04/24 05:08:13;;;;;;;1.70;1.33;;;;;;;14.26;41.18;100863.09;5246283;27;20007;-61
2024/04/24 05:10:38;;;;;;;1.52;1.23;;;;;;;14.26;41.39;100860.41;5244732;27;20003;-61
2024/04/24 05:13:09;;;;;;;4.05;1.65;;;;;;;14.27;41.33;100861.22;5216856;27;20014;-61
2024/04/24 05:15:34;;;;;;;1.73;1.50;;;;;;;14.27;41.22;100856.69;5188642;27;20428;-61
2024/04/24 05:18:03;;;;;;;6.30;1.70;;;;;;;14.27;41.31;100866.63;5216439;27;20003;-62
2024/04/24 05:20:29;;;;;;;7.38;1.77;;;;;;;14.27;41.08;100856.69;5216142;27;19995;-61
2024/04/24 05:23:00;;;;;;;4.15;1.42;;;;;;;14.32;41.42;100858.97;5248228;26;20002;-61
2024/04/24 05:25:28;;;;;;;4.63;2.20;;;;;;;14.34;41.20;100852.44;5307729;26;20006;-62
2024/04/24 05:30:38;;;;;;;3.22;1.40;;;;;;;14.35;41.35;100853.28;5308266;27;20001;-61
2024/04/24 05:33:03;;;;;;;2.20;1.67;;;;;;;14.36;41.46;100853.13;5313487;26;20084;-61
2024/04/24 05:35:29;;;;;;;3.47;1.42;;;;;;;14.37;41.48;100852.13;5292167;27;20002;-61
2024/04/24 05:37:54;;;;;;;3.22;1.02;;;;;;;14.39;41.65;100842.03;5278594;26;20080;-64
2024/04/24 05:40:20;;;;;;;2.95;1.13;;;;;;;14.40;41.49;100843.75;5277329;27;20006;-63
2024/04/24 05:42:45;;;;;;;3.08;1.00;;;;;;;14.43;41.48;100835.31;5249127;27;20014;-63
2024/04/24 05:45:11;;;;;;;5.40;0.82;;;;;;;14.43;41.49;100851.50;5249543;27;20065;-63
2024/04/24 05:47:36;;;;;;;2.03;0.98;;;;;;;14.43;41.39;100851.50;5221949;27;20002;-62
2024/04/24 05:50:02;;;;;;;3.28;1.33;;;;;;;14.47;41.43;100842.13;5305632;27;20006;-62
2024/04/24 05:52:27;;;;;;;5.53;1.52;;;;;;;14.49;41.54;100840.09;5273551;27;20017;-62
2024/04/24 05:54:53;;;;;;;3.72;1.10;;;;;;;14.52;41.20;100839.78;5243598;27;20003;-62
2024/04/24 05:57:22;;;;;;;1.88;1.42;;;;;;;14.55;41.37;100836.78;5243239;27;20018;-62
2024/04/24 05:59:51;;;;;;;1.27;1.17;;;;;;;14.60;41.49;100835.50;5245303;27;20011;-62
2024/04/24 06:02:17;;;;;;;1.80;1.10;;;;;;;14.61;41.49;100831.78;5215308;27;20153;-63
2024/04/24 06:04:42;;;;;;;1.92;1.15;;;;;;;14.61;41.50;100837.16;5216473;27;20387;-62
2024/04/24 06:07:08;;;;;;;1.75;1.50;;;;;;;14.65;41.49;100833.19;5215930;27;20040;-62
2024/04/24 06:09:33;;;;;;;5.80;1.05;;;;;;;14.64;41.25;100820.69;5215748;27;19999;-62
2024/04/24 06:11:59;;;;;;;1.02;0.82;;;;;;;14.67;41.74;100823.06;5243295;27;20007;-62
2024/04/24 06:14:25;;;;;;;3.35;1.08;;;;;;;14.87;41.03;100827.28;5215793;27;19999;-62
2024/04/24 06:16:50;;;;;;;2.85;1.15;;;;;;;14.83;41.48;100824.06;5271113;27;20410;-62
2024/04/24 06:19:15;;;;;;;1.85;1.00;;;;;;;14.90;41.07;100811.66;5215270;27;20021;-62
2024/04/24 06:21:41;;;;;;;5.07;1.55;;;;;;;15.01;40.94;100818.63;5244704;27;20002;-62
2024/04/24 06:24:07;;;;;;;3.58;1.58;;;;;;;15.05;40.96;100810.06;5188038;27;20403;-62
2024/04/24 06:26:32;;;;;;;2.72;1.02;;;;;;;15.11;41.05;100819.38;5215724;27;20003;-62
2024/04/24 06:28:58;;;;;;;2.00;1.20;;;;;;;15.13;41.00;100801.19;5215293;27;20078;-62
2024/04/24 06:31:23;;;;;;;2.03;0.90;;;;;;;15.18;41.17;100809.66;5187996;27;19999;-62
2024/04/24 06:33:48;;;;;;;4.97;1.30;;;;;;;15.23;41.00;100804.63;5244627;27;20027;-63
2024/04/24 06:36:14;;;;;;;3.60;1.15;;;;;;;15.29;40.99;100811.22;5272105;27;20003;-62
2024/04/24 06:38:39;;;;;;;3.10;0.60;;;;;;;15.30;40.89;100805.66;5215095;27;20014;-62
2024/04/24 06:41:05;;;;;;;2.92;0.90;;;;;;;15.33;40.66;100810.72;5215278;27;20007;-62
2024/04/24 06:43:30;;;;;;;3.88;1.00;;;;;;;15.32;41.08;100805.50;5214823;27;20015;-62
2024/04/24 06:45:56;;;;;;;2.00;0.60;;;;;;;15.32;40.95;100803.66;5215317;27;20014;-62
2024/04/24 06:48:21;;;;;;;4.88;0.52;;;;;;;15.34;40.97;100804.34;5244721;27;20003;-62
2024/04/24 06:50:47;;;;;;;1.02;0.93;;;;;;;15.41;41.02;100804.56;5215426;27;20045;-62
2024/04/24 06:53:12;;;;;;;5.55;1.30;;;;;;;15.52;40.73;100813.22;5243767;27;20002;-62
2024/04/24 06:55:39;;;;;;;3.00;0.82;;;;;;;15.67;40.57;100800.81;5249786;27;20455;-62
2024/04/24 06:58:05;;;;;;;6.30;1.02;;;;;;;15.90;40.06;100795.66;5245921;27;20466;-62
2024/04/24 07:00:31;;;;;;;1.33;0.52;;;;;;;15.89;40.43;100779.59;5245702;27;20078;-62
2024/04/24 07:02:56;;;;;;;2.08;0.77;;;;;;;15.92;40.58;100787.38;5217723;27;20431;-62
2024/04/24 07:05:24;;;;;;;1.35;1.23;;;;;;;15.88;40.38;100794.16;5245872;27;20035;-62
2024/04/24 07:07:50;;;;;;;1.33;0.85;;;;;;;15.81;40.49;100790.38;5246437;27;20081;-62
2024/04/24 07:10:15;;;;;;;2.95;1.23;;;;;;;15.81;40.36;100788.53;5245951;27;20003;-62
2024/04/24 07:12:40;;;;;;;2.53;0.90;;;;;;;16.31;39.57;100788.47;5247074;27;20351;-62
2024/04/24 07:15:06;;;;;;;0.80;0.75;;;;;;;16.77;39.25;100779.75;5218173;27;20003;-62
2024/04/24 07:17:32;;;;;;;1.58;1.13;;;;;;;16.80;39.26;100779.41;5247913;27;20007;-62
2024/04/24 07:19:58;;;;;;;1.45;0.70;;;;;;;16.88;39.70;100797.50;5217696;27;20013;-62
2024/04/24 07:22:23;;;;;;;1.52;0.70;;;;;;;17.26;38.77;100785.06;5247478;27;20058;-62
2024/04/24 07:24:49;;;;;;;1.83;0.40;;;;;;;17.51;38.59;100775.84;5218432;27;20017;-62
2024/04/24 07:27:14;;;;;;;2.55;0.60;;;;;;;17.98;38.24;100771.25;5247247;27;20456;-70
2024/04/24 07:29:39;;;;;;;1.98;0.65;;;;;;;18.31;37.74;100762.91;5217627;27;20463;-70
2024/04/24 07:32:05;;;;;;;1.70;0.50;;;;;;;18.25;38.25;100760.91;5218218;27;20058;-70
2024/04/24 07:34:32;;;;;;;3.95;0.68;;;;;;;18.18;38.20;100755.34;5189902;27;20003;-70
2024/04/24 07:36:57;;;;;;;2.33;0.60;;;;;;;18.08;38.38;100749.34;5247181;27;20022;-70
2024/04/24 07:39:23;;;;;;;4.28;0.90;;;;;;;18.09;38.24;100748.28;5218543;27;20045;-70
2024/04/24 07:41:48;;;;;;;1.63;0.57;;;;;;;18.06;38.13;100758.69;5247871;27;20078;-70
2024/04/24 07:44:13;;;;;;;1.17;0.45;;;;;;;18.12;38.04;100749.84;5189994;27;20003;-70
2024/04/24 07:46:39;;;;;;;2.72;0.70;;;;;;;18.24;38.39;100745.66;5247048;27;20011;-70
2024/04/24 07:49:04;;;;;;;1.58;0.50;;;;;;;18.37;38.01;100740.50;5245862;27;20003;-70
2024/04/24 07:51:30;;;;;;;1.65;0.63;;;;;;;18.41;38.20;100744.50;5247354;27;20016;-69
2024/04/24 07:53:55;;;;;;;0.40;0.40;;;;;;;18.44;38.38;100753.13;5204271;27;20470;-70
2024/04/24 07:56:21;;;;;;;2.45;0.55;;;;;;;18.45;38.27;100754.81;5273829;27;20011;-70
2024/04/24 07:58:46;;;;;;;0.77;0.55;;;;;;;18.44;38.19;100757.72;5217662;27;20006;-70
2024/04/24 08:01:12;;;;;;;2.85;0.52;;;;;;;18.58;37.35;100751.53;5217734;27;20458;-70
2024/04/24 08:03:38;;;;;;;0.65;0.63;;;;;;;18.45;37.72;100757.53;5216752;27;20004;-69
2024/04/24 08:06:05;;;;;;;1.88;0.40;;;;;;;18.33;37.73;100755.44;5273201;27;20007;-70
2024/04/24 08:08:31;;;;;;;2.20;0.40;;;;;;;18.26;37.96;100752.59;5217467;27;20006;-70
2024/04/24 08:10:56;;;;;;;0.80;0.50;;;;;;;18.16;37.45;100767.41;5246853;27;20003;-70
2024/04/24 08:13:22;;;;;;;1.02;0.63;;;;;;;18.08;38.09;100759.34;5218022;27;20415;-70
2024/04/24 08:15:47;;;;;;;0.63;0.60;;;;;;;18.01;37.46;100756.47;5246486;27;20343;-70
2024/04/24 08:18:13;;;;;;;3.20;0.68;;;;;;;17.99;38.17;100753.97;5272825;27;20010;-70
2024/04/24 08:20:38;;;;;;;4.50;1.20;;;;;;;18.24;37.24;100748.38;5189279;27;20035;-70
2024/04/24 08:23:04;;;;;;;2.22;0.60;;;;;;;18.71;36.86;100749.03;5244489;27;19999;-70
2024/04/24 08:25:29;;;;;;;1.02;1.02;;;;;;;19.40;36.15;100744.25;5217178;27;19999;-70
2024/04/24 08:27:55;;;;;;;0.90;0.80;;;;;;;20.04;35.50;100728.94;5246468;27;20011;-70
2024/04/24 08:30:20;;;;;;;3.55;1.23;;;;;;;19.68;36.80;100739.84;5246300;27;20463;-70
2024/04/24 08:32:46;;;;;;;5.90;0.80;;;;;;;19.44;36.90;100737.41;5189787;27;20339;-71
2024/04/24 08:35:11;;;;;;;1.20;0.98;;;;;;;19.35;36.62;100742.06;5272741;27;20003;-70
2024/04/24 08:37:37;;;;;;;1.17;0.60;;;;;;;19.25;36.79;100737.94;5244558;27;20019;-70
2024/04/24 08:40:03;;;;;;;2.03;1.35;;;;;;;19.13;37.29;100730.28;5216484;27;20007;-70
2024/04/24 08:42:29;;;;;;;1.50;0.60;;;;;;;19.15;37.24;100728.19;5189680;27;20003;-70
2024/04/24 08:44:58;;;;;;;1.88;0.63;;;;;;;19.69;36.00;100730.63;5217212;27;20007;-70
2024/04/24 08:47:24;;;;;;;1.95;0.60;;;;;;;19.87;36.15;100733.78;5272935;27;20039;-62
2024/04/24 08:49:50;;;;;;;2.28;0.80;;;;;;;20.21;35.80;100725.75;5189755;27;20020;-62
2024/04/24 08:52:23;;;;;;;4.45;0.60;;;;;;;20.79;35.13;100726.53;5244587;27;20003;-62
2024/04/24 08:54:56;;;;;;;1.55;0.68;;;;;;;20.89;34.96;100732.47;5217637;27;20006;-63
2024/04/24 08:57:24;;;;;;;2.45;0.60;;;;;;;20.81;35.48;100727.16;5272974;27;20017;-63
2024/04/24 08:59:51;;;;;;;2.55;0.95;;;;;;;21.03;34.92;100730.66;5244961;27;20077;-62
2024/04/24 09:02:19;;;;;;;2.35;0.60;;;;;;;21.28;34.78;100716.41;5217737;27;20539;-62
2024/04/24 09:04:45;;;;;;;2.33;0.60;;;;;;;21.08;35.05;100718.16;5217327;27;20021;-62
2024/04/24 09:07:11;;;;;;;3.63;0.60;;;;;;;20.78;35.02;100719.41;5217108;27;20017;-63
2024/04/24 09:09:37;;;;;;;5.82;0.98;;;;;;;20.44;35.29;100722.03;5189405;27;20007;-62
2024/04/24 09:12:06;;;;;;;2.22;0.63;;;;;;;20.12;35.72;100726.09;5216985;27;20018;-62
2024/04/24 09:14:32;;;;;;;2.25;0.40;;;;;;;19.76;35.18;100716.06;5216482;27;20081;-62
2024/04/24 09:16:58;;;;;;;3.65;0.60;;;;;;;19.46;35.46;100722.59;5245494;27;20003;-63
2024/04/24 09:19:23;;;;;;;1.27;0.70;;;;;;;19.32;35.31;100717.16;5188905;27;20030;-62
2024/04/24 09:21:49;;;;;;;2.58;0.80;;;;;;;19.26;35.36;100718.75;5216011;27;20011;-62
2024/04/24 09:24:16;;;;;;;2.60;0.65;;;;;;;19.22;35.63;100713.88;5188884;27;20038;-62
2024/04/24 09:26:42;;;;;;;2.08;0.80;;;;;;;19.14;35.22;100712.97;5215810;27;20440;-62
2024/04/24 09:29:12;;;;;;;2.35;0.82;;;;;;;19.10;35.06;100708.06;5216545;27;20015;-62
2024/04/24 09:31:38;;;;;;;6.40;0.80;;;;;;;19.10;35.26;100703.50;5272178;27;20467;-62
2024/04/24 09:34:03;;;;;;;2.13;0.68;;;;;;;19.17;35.21;100699.00;5216019;27;20017;-62
2024/04/24 09:36:32;;;;;;;0.85;0.70;;;;;;;19.21;35.50;100702.16;5245702;27;20002;-62
2024/04/24 09:38:58;;;;;;;0.93;0.47;;;;;;;19.10;34.91;100698.06;5215552;27;19999;-64
2024/04/24 09:41:24;;;;;;;3.08;0.68;;;;;;;19.01;35.15;100687.50;5243545;27;20014;-62
2024/04/24 09:43:50;;;;;;;1.88;0.40;;;;;;;18.94;35.63;100703.69;5216178;27;19999;-63
2024/04/24 09:46:18;;;;;;;0.73;0.43;;;;;;;18.89;34.84;100694.41;5216546;27;20012;-62
2024/04/24 09:48:44;;;;;;;3.00;0.77;;;;;;;18.93;35.15;100691.13;5271915;27;20475;-62
2024/04/24 09:51:11;;;;;;;1.75;0.65;;;;;;;18.87;34.72;100697.28;5216037;27;20006;-62
2024/04/24 09:53:36;;;;;;;2.67;0.50;;;;;;;18.77;34.91;100696.72;5217199;27;20030;-63
2024/04/24 09:56:15;;;;;;;6.95;0.70;;;;;;;18.70;34.63;100700.38;5272975;27;20074;-62
2024/04/24 09:58:42;;;;;;;3.17;0.82;;;;;;;18.59;35.34;100698.97;5189927;27;20452;-62
2024/04/24 10:01:08;;;;;;;4.13;1.13;;;;;;;18.51;34.96;100696.28;5215764;27;20003;-62
2024/04/24 10:03:35;;;;;;;3.13;0.88;;;;;;;18.40;34.85;100694.00;5271518;27;20045;-62
2024/04/24 10:06:02;;;;;;;5.93;0.70;;;;;;;18.23;35.19;100700.59;5215816;27;20003;-62
2024/04/24 10:08:35;;;;;;;0.82;0.40;;;;;;;18.12;35.08;100706.44;5243688;27;20493;-62
2024/04/24 10:11:02;;;;;;;3.33;0.65;;;;;;;17.98;35.09;100703.47;5216835;27;20110;-62
2024/04/24 10:13:30;;;;;;;1.17;0.50;;;;;;;17.85;35.72;100699.69;5215336;27;20003;-62
2024/04/24 10:15:58;;;;;;;1.52;0.70;;;;;;;17.78;35.88;100714.97;5242994;27;20444;-62
2024/04/24 10:18:26;;;;;;;0.85;0.77;;;;;;;17.68;35.64;100704.34;5188526;27;20003;-62
2024/04/24 10:20:52;;;;;;;4.90;0.63;;;;;;;17.59;35.74;100705.41;5245176;27;20003;-62
2024/04/24 10:23:18;;;;;;;1.63;0.85;;;;;;;17.58;35.71;100709.16;5215722;27;20039;-61
2024/04/24 10:25:44;;;;;;;3.13;1.00;;;;;;;17.46;36.02;100705.97;5215555;27;20007;-63
2024/04/24 10:28:10;;;;;;;3.38;0.73;;;;;;;17.35;36.36;100706.34;5269896;27;20007;-61
2024/04/24 10:30:37;;;;;;;1.45;0.82;;;;;;;17.28;36.91;100707.25;5215523;27;20034;-61
2024/04/24 10:33:06;;;;;;;4.47;0.93;;;;;;;17.11;36.81;100711.88;5215514;27;20003;-61
2024/04/24 10:35:32;;;;;;;4.55;0.55;;;;;;;16.93;36.97;100704.97;5271054;27;20011;-61
2024/04/24 10:37:57;;;;;;;2.63;0.65;;;;;;;16.86;36.93;100702.94;5215639;27;20416;-62
2024/04/24 10:40:27;;;;;;;3.92;0.90;;;;;;;17.01;37.31;100699.53;5215415;27;20022;-61
2024/04/24 10:42:55;;;;;;;3.45;0.82;;;;;;;17.50;36.87;100701.03;5271075;27;19999;-62
2024/04/24 10:45:23;;;;;;;1.20;0.57;;;;;;;18.08;36.26;100688.84;5242841;27;20340;-61
2024/04/24 10:47:52;;;;;;;2.55;0.70;;;;;;;18.47;35.83;100684.13;5188056;27;20003;-61
2024/04/24 10:50:18;;;;;;;1.33;0.70;;;;;;;18.95;36.25;100683.66;5271369;27;20010;-61
2024/04/24 10:52:51;;;;;;;1.98;0.82;;;;;;;19.47;35.89;100682.69;5215664;27;20003;-62
2024/04/24 10:55:19;;;;;;;1.08;0.32;;;;;;;20.84;34.29;100678.63;5271198;27;20039;-62
2024/04/24 10:57:46;;;;;;;1.40;0.80;;;;;;;21.81;34.18;100670.28;5188291;27;19999;-62
2024/04/24 11:00:13;;;;;;;0.38;0.38;;;;;;;22.72;33.70;100657.81;5215341;27;20017;-62
2024/04/24 11:02:39;;;;;;;1.15;0.60;;;;;;;23.61;32.92;100654.19;5242307;27;20007;-62
2024/04/24 11:05:06;;;;;;;3.17;0.73;;;;;;;24.41;32.91;100641.66;5187786;27;20010;-65
2024/04/24 11:07:31;;;;;;;6.53;0.50;;;;;;;25.15;32.37;100641.56;5270838;27;20018;-63
2024/04/24 11:09:57;;;;;;;1.98;0.63;;;;;;;25.66;32.31;100641.13;5214679;27;20371;-64
2024/04/24 11:12:23;;;;;;;4.45;0.85;;;;;;;26.22;31.74;100637.16;5214713;27;20464;-63
2024/04/24 11:14:49;;;;;;;4.13;1.00;;;;;;;26.76;31.39;100631.34;5244067;27;20007;-63
2024/04/24 11:17:15;;;;;;;4.43;1.00;;;;;;;27.25;30.61;100631.91;5214761;27;20007;-65
2024/04/24 11:19:41;;;;;;;4.22;0.95;;;;;;;27.32;31.17;100625.19;5214692;27;20442;-66
2024/04/24 11:22:07;;;;;;;0.50;0.50;;;;;;;26.88;31.30;100626.72;5214515;27;20010;-65
2024/04/24 11:24:33;;;;;;;3.10;0.60;;;;;;;26.68;31.37;100622.63;5187138;27;20023;-65